sensor_id;sensor_type;location;lat;lon;timestamp;pressure;altitude;pressure_sealevel;temperature;humidity
7668;BME280;3876;42.204;24.686;2022-07-12T00:01:41;99757.03;;;17.77;67.20
7668;BME280;3876;42.204;24.686;2022-07-12T00:04:08;99757.19;;;17.74;67.50
7668;BME280;3876;42.204;24.686;2022-07-12T00:06:35;99770.16;;;17.74;67.78
7668;BME280;3876;42.204;24.686;2022-07-12T00:09:02;99767.75;;;17.71;67.63
7668;BME280;3876;42.204;24.686;2022-07-12T00:11:29;99765.91;;;17.73;67.69
7668;BME280;3876;42.204;24.686;2022-07-12T00:13:56;99763.06;;;17.62;68.34
7668;BME280;3876;42.204;24.686;2022-07-12T00:16:23;99768.22;;;17.62;68.40
7668;BME280;3876;42.204;24.686;2022-07-12T00:18:51;99751.63;;;17.49;68.46
7668;BME280;3876;42.204;24.686;2022-07-12T00:21:18;99764.34;;;17.54;68.55
7668;BME280;3876;42.204;24.686;2022-07-12T00:23:45;99769.03;;;17.47;68.60
7668;BME280;3876;42.204;24.686;2022-07-12T00:26:12;99774.19;;;17.47;68.33
7668;BME280;3876;42.204;24.686;2022-07-12T00:28:39;99777.69;;;17.46;68.32
7668;BME280;3876;42.204;24.686;2022-07-12T00:31:07;99773.38;;;17.47;68.25
7668;BME280;3876;42.204;24.686;2022-07-12T00:33:34;99755.09;;;17.32;67.48
7668;BME280;3876;42.204;24.686;2022-07-12T00:36:02;99767.50;;;17.43;67.42
7668;BME280;3876;42.204;24.686;2022-07-12T00:38:29;99776.69;;;17.49;66.95
7668;BME280;3876;42.204;24.686;2022-07-12T00:40:56;99779.84;;;17.55;66.77
7668;BME280;3876;42.204;24.686;2022-07-12T00:43:23;99777.09;;;17.58;66.46
7668;BME280;3876;42.204;24.686;2022-07-12T00:45:50;99765.97;;;17.56;66.04
7668;BME280;3876;42.204;24.686;2022-07-12T00:48:17;99776.59;;;17.67;65.90
7668;BME280;3876;42.204;24.686;2022-07-12T00:50:47;99754.38;;;17.63;65.58
7668;BME280;3876;42.204;24.686;2022-07-12T00:53:15;99767.56;;;17.74;65.50
7668;BME280;3876;42.204;24.686;2022-07-12T00:55:51;99773.09;;;17.68;64.90
7668;BME280;3876;42.204;24.686;2022-07-12T00:58:19;99761.38;;;17.61;65.14
7668;BME280;3876;42.204;24.686;2022-07-12T01:00:48;99770.09;;;17.60;65.04
7668;BME280;3876;42.204;24.686;2022-07-12T01:03:15;99770.38;;;17.54;65.32
7668;BME280;3876;42.204;24.686;2022-07-12T01:05:42;99776.53;;;17.52;65.70
7668;BME280;3876;42.204;24.686;2022-07-12T01:08:11;99774.19;;;17.47;65.67
7668;BME280;3876;42.204;24.686;2022-07-12T01:10:40;99769.94;;;17.46;65.83
7668;BME280;3876;42.204;24.686;2022-07-12T01:13:09;99760.09;;;17.36;66.17
7668;BME280;3876;42.204;24.686;2022-07-12T01:15:37;99773.53;;;17.44;66.66
7668;BME280;3876;42.204;24.686;2022-07-12T01:18:04;99777.13;;;17.41;67.11
7668;BME280;3876;42.204;24.686;2022-07-12T01:20:32;99771.31;;;17.36;67.50
7668;BME280;3876;42.204;24.686;2022-07-12T01:23:01;99777.41;;;17.35;67.69
7668;BME280;3876;42.204;24.686;2022-07-12T01:25:28;99760.28;;;17.32;67.24
7668;BME280;3876;42.204;24.686;2022-07-12T01:27:55;99746.06;;;17.24;67.77
7668;BME280;3876;42.204;24.686;2022-07-12T01:30:22;99770.75;;;17.31;67.97
7668;BME280;3876;42.204;24.686;2022-07-12T01:32:49;99769.94;;;17.29;68.08
7668;BME280;3876;42.204;24.686;2022-07-12T01:35:17;99770.13;;;17.26;68.41
7668;BME280;3876;42.204;24.686;2022-07-12T01:37:44;99771.97;;;17.24;68.61
7668;BME280;3876;42.204;24.686;2022-07-12T01:40:15;99770.59;;;17.17;69.02
7668;BME280;3876;42.204;24.686;2022-07-12T01:42:42;99753.53;;;17.13;69.23
7668;BME280;3876;42.204;24.686;2022-07-12T01:45:11;99764.50;;;17.18;69.48
7668;BME280;3876;42.204;24.686;2022-07-12T01:47:38;99760.31;;;17.15;69.89
7668;BME280;3876;42.204;24.686;2022-07-12T01:50:06;99758.97;;;17.08;70.00
7668;BME280;3876;42.204;24.686;2022-07-12T01:52:34;99760.56;;;17.11;70.53
7668;BME280;3876;42.204;24.686;2022-07-12T01:55:02;99746.91;;;17.07;70.14
7668;BME280;3876;42.204;24.686;2022-07-12T01:57:31;99770.00;;;17.12;70.22
7668;BME280;3876;42.204;24.686;2022-07-12T02:00:00;99765.03;;;17.07;70.47
7668;BME280;3876;42.204;24.686;2022-07-12T02:02:28;99769.09;;;16.96;70.73
7668;BME280;3876;42.204;24.686;2022-07-12T02:04:56;99764.66;;;16.98;70.48
7668;BME280;3876;42.204;24.686;2022-07-12T02:07:24;99764.25;;;16.90;70.51
7668;BME280;3876;42.204;24.686;2022-07-12T02:09:51;99773.50;;;16.94;69.76
7668;BME280;3876;42.204;24.686;2022-07-12T02:12:18;99758.44;;;16.85;70.28
7668;BME280;3876;42.204;24.686;2022-07-12T02:14:46;99773.66;;;16.91;69.74
7668;BME280;3876;42.204;24.686;2022-07-12T02:17:13;99778.16;;;16.87;70.32
7668;BME280;3876;42.204;24.686;2022-07-12T02:19:40;99759.19;;;16.69;70.84
7668;BME280;3876;42.204;24.686;2022-07-12T02:22:07;99773.28;;;16.81;70.72
7668;BME280;3876;42.204;24.686;2022-07-12T02:24:34;99773.75;;;16.72;70.78
7668;BME280;3876;42.204;24.686;2022-07-12T02:27:01;99779.47;;;16.78;71.23
7668;BME280;3876;42.204;24.686;2022-07-12T02:29:27;99781.56;;;16.70;71.46
7668;BME280;3876;42.204;24.686;2022-07-12T02:31:56;99773.66;;;16.56;71.76
7668;BME280;3876;42.204;24.686;2022-07-12T02:34:22;99784.00;;;16.56;72.39
7668;BME280;3876;42.204;24.686;2022-07-12T02:36:49;99788.28;;;16.57;72.23
7668;BME280;3876;42.204;24.686;2022-07-12T02:39:16;99768.91;;;16.47;72.63
7668;BME280;3876;42.204;24.686;2022-07-12T02:41:43;99779.09;;;16.50;74.03
7668;BME280;3876;42.204;24.686;2022-07-12T02:44:10;99779.94;;;16.51;73.49
7668;BME280;3876;42.204;24.686;2022-07-12T02:46:36;99782.53;;;16.51;73.38
7668;BME280;3876;42.204;24.686;2022-07-12T02:49:05;99780.59;;;16.54;73.47
7668;BME280;3876;42.204;24.686;2022-07-12T02:51:31;99780.75;;;16.51;73.46
7668;BME280;3876;42.204;24.686;2022-07-12T02:53:58;99791.78;;;16.56;73.53
7668;BME280;3876;42.204;24.686;2022-07-12T02:56:26;99797.41;;;16.64;72.67
7668;BME280;3876;42.204;24.686;2022-07-12T02:58:53;99797.72;;;16.75;72.48
7668;BME280;3876;42.204;24.686;2022-07-12T03:01:19;99803.59;;;16.79;71.46
7668;BME280;3876;42.204;24.686;2022-07-12T03:03:46;99805.88;;;16.85;71.29
7668;BME280;3876;42.204;24.686;2022-07-12T03:06:15;99805.72;;;16.88;71.17
7668;BME280;3876;42.204;24.686;2022-07-12T03:08:42;99803.09;;;16.90;70.95
7668;BME280;3876;42.204;24.686;2022-07-12T03:11:09;99798.88;;;16.87;70.49
7668;BME280;3876;42.204;24.686;2022-07-12T03:13:36;99815.78;;;16.94;70.72
7668;BME280;3876;42.204;24.686;2022-07-12T03:16:03;99809.91;;;16.91;70.78
7668;BME280;3876;42.204;24.686;2022-07-12T03:18:30;99808.38;;;16.87;71.15
7668;BME280;3876;42.204;24.686;2022-07-12T03:20:57;99806.88;;;16.83;71.05
7668;BME280;3876;42.204;24.686;2022-07-12T03:23:25;99807.19;;;16.76;71.28
7668;BME280;3876;42.204;24.686;2022-07-12T03:25:52;99808.84;;;16.77;71.29
7668;BME280;3876;42.204;24.686;2022-07-12T03:28:20;99808.00;;;16.77;70.86
7668;BME280;3876;42.204;24.686;2022-07-12T03:30:47;99813.56;;;16.69;71.76
7668;BME280;3876;42.204;24.686;2022-07-12T03:33:13;99801.06;;;16.60;71.77
7668;BME280;3876;42.204;24.686;2022-07-12T03:35:40;99815.81;;;16.58;71.93
7668;BME280;3876;42.204;24.686;2022-07-12T03:38:07;99811.66;;;16.54;72.16
7668;BME280;3876;42.204;24.686;2022-07-12T03:40:35;99808.47;;;16.49;71.49
7668;BME280;3876;42.204;24.686;2022-07-12T03:43:02;99794.78;;;16.47;72.37
7668;BME280;3876;42.204;24.686;2022-07-12T03:45:29;99800.22;;;16.60;71.14
7668;BME280;3876;42.204;24.686;2022-07-12T03:47:56;99824.53;;;16.74;71.94
7668;BME280;3876;42.204;24.686;2022-07-12T03:50:23;99824.06;;;16.84;71.69
7668;BME280;3876;42.204;24.686;2022-07-12T03:52:50;99823.66;;;16.93;70.92
7668;BME280;3876;42.204;24.686;2022-07-12T03:55:17;99825.38;;;17.09;70.48
7668;BME280;3876;42.204;24.686;2022-07-12T03:57:45;99828.22;;;17.22;69.41
7668;BME280;3876;42.204;24.686;2022-07-12T04:00:13;99822.63;;;17.29;69.63
7668;BME280;3876;42.204;24.686;2022-07-12T04:02:40;99812.25;;;17.29;69.59
7668;BME280;3876;42.204;24.686;2022-07-12T04:05:08;99825.59;;;17.56;69.58
7668;BME280;3876;42.204;24.686;2022-07-12T04:07:36;99825.97;;;17.81;69.37
7668;BME280;3876;42.204;24.686;2022-07-12T04:10:04;99829.88;;;18.06;68.51
7668;BME280;3876;42.204;24.686;2022-07-12T04:12:31;99830.13;;;18.17;66.21
7668;BME280;3876;42.204;24.686;2022-07-12T04:14:59;99832.47;;;18.21;66.79
7668;BME280;3876;42.204;24.686;2022-07-12T04:17:26;99832.47;;;18.21;66.26
7668;BME280;3876;42.204;24.686;2022-07-12T04:19:53;99839.09;;;18.27;66.72
7668;BME280;3876;42.204;24.686;2022-07-12T04:22:20;99836.75;;;18.38;65.51
7668;BME280;3876;42.204;24.686;2022-07-12T04:24:47;99839.56;;;18.49;67.01
7668;BME280;3876;42.204;24.686;2022-07-12T04:27:13;99840.59;;;18.62;66.29
7668;BME280;3876;42.204;24.686;2022-07-12T04:29:40;99841.00;;;18.70;64.68
7668;BME280;3876;42.204;24.686;2022-07-12T04:32:08;99833.06;;;18.73;64.05
7668;BME280;3876;42.204;24.686;2022-07-12T04:34:35;99837.19;;;18.92;64.86
7668;BME280;3876;42.204;24.686;2022-07-12T04:37:02;99841.50;;;19.07;64.47
7668;BME280;3876;42.204;24.686;2022-07-12T04:39:29;99848.97;;;19.27;65.26
7668;BME280;3876;42.204;24.686;2022-07-12T04:41:56;99853.31;;;19.56;62.27
7668;BME280;3876;42.204;24.686;2022-07-12T04:44:23;99850.00;;;19.82;64.10
7668;BME280;3876;42.204;24.686;2022-07-12T04:46:50;99856.00;;;20.25;64.11
7668;BME280;3876;42.204;24.686;2022-07-12T04:49:18;99850.44;;;20.58;62.41
7668;BME280;3876;42.204;24.686;2022-07-12T04:51:45;99850.03;;;20.91;61.00
7668;BME280;3876;42.204;24.686;2022-07-12T04:54:12;99847.63;;;21.15;60.94
7668;BME280;3876;42.204;24.686;2022-07-12T04:56:38;99839.72;;;21.29;56.19
7668;BME280;3876;42.204;24.686;2022-07-12T04:59:05;99856.00;;;21.45;58.39
7668;BME280;3876;42.204;24.686;2022-07-12T05:01:32;99854.63;;;21.39;55.28
7668;BME280;3876;42.204;24.686;2022-07-12T05:03:59;99856.72;;;21.47;55.32
7668;BME280;3876;42.204;24.686;2022-07-12T05:06:27;99855.38;;;21.54;56.78
7668;BME280;3876;42.204;24.686;2022-07-12T05:08:54;99847.22;;;21.71;55.73
7668;BME280;3876;42.204;24.686;2022-07-12T05:11:21;99860.59;;;21.92;55.72
7668;BME280;3876;42.204;24.686;2022-07-12T05:13:48;99857.25;;;22.03;54.13
7668;BME280;3876;42.204;24.686;2022-07-12T05:16:15;99859.13;;;22.13;53.72
7668;BME280;3876;42.204;24.686;2022-07-12T05:18:41;99859.88;;;22.39;54.68
7668;BME280;3876;42.204;24.686;2022-07-12T05:21:08;99864.81;;;22.67;51.55
7668;BME280;3876;42.204;24.686;2022-07-12T05:23:37;99853.69;;;22.76;51.84
7668;BME280;3876;42.204;24.686;2022-07-12T05:26:04;99866.16;;;23.08;52.32
7668;BME280;3876;42.204;24.686;2022-07-12T05:28:31;99858.59;;;23.16;51.98
7668;BME280;3876;42.204;24.686;2022-07-12T05:30:58;99860.53;;;23.25;50.20
7668;BME280;3876;42.204;24.686;2022-07-12T05:33:25;99853.66;;;23.35;51.16
7668;BME280;3876;42.204;24.686;2022-07-12T05:35:52;99861.34;;;23.60;51.20
7668;BME280;3876;42.204;24.686;2022-07-12T05:38:19;99849.69;;;23.86;51.38
7668;BME280;3876;42.204;24.686;2022-07-12T05:40:47;99853.63;;;24.14;48.49
7668;BME280;3876;42.204;24.686;2022-07-12T05:43:14;99858.38;;;24.31;48.80
7668;BME280;3876;42.204;24.686;2022-07-12T05:45:42;99860.97;;;24.42;48.81
7668;BME280;3876;42.204;24.686;2022-07-12T05:48:09;99856.16;;;24.59;50.11
7668;BME280;3876;42.204;24.686;2022-07-12T05:50:36;99854.31;;;24.81;47.95
7668;BME280;3876;42.204;24.686;2022-07-12T05:53:02;99863.22;;;24.79;45.86
7668;BME280;3876;42.204;24.686;2022-07-12T05:55:54;99858.13;;;24.77;47.32
7668;BME280;3876;42.204;24.686;2022-07-12T05:58:21;99860.13;;;24.85;48.19
7668;BME280;3876;42.204;24.686;2022-07-12T06:00:48;99863.50;;;25.07;45.68
7668;BME280;3876;42.204;24.686;2022-07-12T06:03:15;99861.34;;;25.13;44.96
7668;BME280;3876;42.204;24.686;2022-07-12T06:05:42;99852.66;;;25.33;46.85
7668;BME280;3876;42.204;24.686;2022-07-12T06:08:09;99856.38;;;25.51;46.83
7668;BME280;3876;42.204;24.686;2022-07-12T06:10:36;99837.66;;;25.65;46.74
7668;BME280;3876;42.204;24.686;2022-07-12T06:13:04;99854.22;;;25.96;43.95
7668;BME280;3876;42.204;24.686;2022-07-12T06:15:31;99849.88;;;26.16;44.22
7668;BME280;3876;42.204;24.686;2022-07-12T06:17:58;99851.41;;;26.18;45.68
7668;BME280;3876;42.204;24.686;2022-07-12T06:20:25;99843.72;;;26.36;44.06
7668;BME280;3876;42.204;24.686;2022-07-12T06:22:52;99844.28;;;26.30;43.88
7668;BME280;3876;42.204;24.686;2022-07-12T06:25:19;99847.03;;;26.38;44.42
7668;BME280;3876;42.204;24.686;2022-07-12T06:27:46;99842.75;;;26.37;43.21
7668;BME280;3876;42.204;24.686;2022-07-12T06:30:16;99844.59;;;26.55;44.05
7668;BME280;3876;42.204;24.686;2022-07-12T06:32:44;99837.38;;;26.57;45.12
7668;BME280;3876;42.204;24.686;2022-07-12T06:35:12;99834.56;;;26.40;43.94
7668;BME280;3876;42.204;24.686;2022-07-12T06:37:38;99828.53;;;26.39;43.01
7668;BME280;3876;42.204;24.686;2022-07-12T06:40:06;99822.72;;;26.45;42.69
7668;BME280;3876;42.204;24.686;2022-07-12T06:42:34;99821.03;;;26.44;43.71
7668;BME280;3876;42.204;24.686;2022-07-12T06:45:01;99825.19;;;26.56;43.67
7668;BME280;3876;42.204;24.686;2022-07-12T06:47:30;99822.97;;;26.42;42.98
7668;BME280;3876;42.204;24.686;2022-07-12T06:49:56;99815.50;;;26.47;43.32
7668;BME280;3876;42.204;24.686;2022-07-12T06:52:23;99824.91;;;26.50;42.24
7668;BME280;3876;42.204;24.686;2022-07-12T06:54:50;99812.47;;;26.52;43.94
7668;BME280;3876;42.204;24.686;2022-07-12T06:57:17;99815.22;;;26.60;42.30
7668;BME280;3876;42.204;24.686;2022-07-12T06:59:44;99822.88;;;26.82;42.39
7668;BME280;3876;42.204;24.686;2022-07-12T07:02:10;99815.66;;;27.13;43.00
7668;BME280;3876;42.204;24.686;2022-07-12T07:04:39;99819.66;;;27.27;41.04
7668;BME280;3876;42.204;24.686;2022-07-12T07:07:06;99821.00;;;27.31;40.84
7668;BME280;3876;42.204;24.686;2022-07-12T07:09:32;99821.28;;;27.47;41.95
7668;BME280;3876;42.204;24.686;2022-07-12T07:12:00;99824.91;;;27.46;41.72
7668;BME280;3876;42.204;24.686;2022-07-12T07:14:27;99815.59;;;27.51;42.05
7668;BME280;3876;42.204;24.686;2022-07-12T07:16:55;99812.84;;;27.80;42.10
7668;BME280;3876;42.204;24.686;2022-07-12T07:19:22;99814.81;;;27.78;39.91
7668;BME280;3876;42.204;24.686;2022-07-12T07:21:53;99821.63;;;27.98;41.47
7668;BME280;3876;42.204;24.686;2022-07-12T07:24:21;99821.34;;;28.29;40.48
7668;BME280;3876;42.204;24.686;2022-07-12T07:26:49;99813.44;;;28.29;36.19
7668;BME280;3876;42.204;24.686;2022-07-12T07:29:17;99819.47;;;28.39;36.36
7668;BME280;3876;42.204;24.686;2022-07-12T07:32:02;99815.72;;;28.59;34.65
7668;BME280;3876;42.204;24.686;2022-07-12T07:34:29;99817.59;;;28.49;34.26
7668;BME280;3876;42.204;24.686;2022-07-12T07:36:58;99805.84;;;28.61;33.52
7668;BME280;3876;42.204;24.686;2022-07-12T07:39:25;99806.81;;;28.60;32.74
7668;BME280;3876;42.204;24.686;2022-07-12T07:41:53;99815.13;;;28.65;32.06
7668;BME280;3876;42.204;24.686;2022-07-12T07:44:20;99806.69;;;28.79;34.06
7668;BME280;3876;42.204;24.686;2022-07-12T07:46:47;99786.34;;;28.72;32.88
7668;BME280;3876;42.204;24.686;2022-07-12T07:49:14;99804.75;;;28.81;31.09
7668;BME280;3876;42.204;24.686;2022-07-12T07:51:41;99804.88;;;28.97;34.31
7668;BME280;3876;42.204;24.686;2022-07-12T07:54:09;99806.63;;;29.14;31.56
7668;BME280;3876;42.204;24.686;2022-07-12T07:56:36;99809.75;;;29.10;32.69
7668;BME280;3876;42.204;24.686;2022-07-12T07:59:03;99814.09;;;29.19;31.41
7668;BME280;3876;42.204;24.686;2022-07-12T08:01:29;99805.63;;;29.33;34.24
7668;BME280;3876;42.204;24.686;2022-07-12T08:04:11;99804.66;;;29.16;36.37
7668;BME280;3876;42.204;24.686;2022-07-12T08:06:38;99797.72;;;29.15;33.19
7668;BME280;3876;42.204;24.686;2022-07-12T08:09:05;99800.16;;;29.27;31.33
7668;BME280;3876;42.204;24.686;2022-07-12T08:11:35;99801.41;;;29.23;31.65
7668;BME280;3876;42.204;24.686;2022-07-12T08:14:02;99790.41;;;29.27;33.09
7668;BME280;3876;42.204;24.686;2022-07-12T08:16:29;99799.63;;;29.49;32.54
7668;BME280;3876;42.204;24.686;2022-07-12T08:18:57;99790.19;;;29.46;31.44
7668;BME280;3876;42.204;24.686;2022-07-12T08:21:24;99775.91;;;29.31;31.07
7668;BME280;3876;42.204;24.686;2022-07-12T08:23:51;99783.31;;;29.28;32.62
7668;BME280;3876;42.204;24.686;2022-07-12T08:26:18;99776.50;;;29.51;31.80
7668;BME280;3876;42.204;24.686;2022-07-12T08:28:47;99783.13;;;29.55;31.33
7668;BME280;3876;42.204;24.686;2022-07-12T08:31:13;99776.22;;;29.62;32.93
7668;BME280;3876;42.204;24.686;2022-07-12T08:33:41;99783.91;;;29.81;33.15
7668;BME280;3876;42.204;24.686;2022-07-12T08:36:08;99787.28;;;29.99;31.33
7668;BME280;3876;42.204;24.686;2022-07-12T08:38:35;99779.56;;;30.06;32.16
7668;BME280;3876;42.204;24.686;2022-07-12T08:41:03;99777.03;;;29.88;31.42
7668;BME280;3876;42.204;24.686;2022-07-12T08:43:33;99768.78;;;29.91;31.36
7668;BME280;3876;42.204;24.686;2022-07-12T08:46:06;99784.00;;;29.97;30.02
7668;BME280;3876;42.204;24.686;2022-07-12T08:48:33;99778.72;;;29.97;29.71
7668;BME280;3876;42.204;24.686;2022-07-12T08:51:01;99777.69;;;29.90;32.23
7668;BME280;3876;42.204;24.686;2022-07-12T08:53:29;99773.09;;;30.00;30.69
7668;BME280;3876;42.204;24.686;2022-07-12T08:55:56;99765.44;;;29.89;30.17
7668;BME280;3876;42.204;24.686;2022-07-12T08:58:23;99760.53;;;30.02;31.14
7668;BME280;3876;42.204;24.686;2022-07-12T09:00:50;99758.94;;;30.17;31.09
7668;BME280;3876;42.204;24.686;2022-07-12T09:03:18;99758.59;;;30.20;31.01
7668;BME280;3876;42.204;24.686;2022-07-12T09:05:50;99757.63;;;30.30;33.62
7668;BME280;3876;42.204;24.686;2022-07-12T09:08:18;99756.78;;;30.29;35.48
7668;BME280;3876;42.204;24.686;2022-07-12T09:10:55;99760.97;;;30.48;32.85
7668;BME280;3876;42.204;24.686;2022-07-12T09:13:46;99766.59;;;30.45;28.64
7668;BME280;3876;42.204;24.686;2022-07-12T09:16:13;99757.63;;;30.30;28.49
7668;BME280;3876;42.204;24.686;2022-07-12T09:18:42;99752.19;;;30.39;30.62
7668;BME280;3876;42.204;24.686;2022-07-12T09:21:09;99750.34;;;30.32;30.55
7668;BME280;3876;42.204;24.686;2022-07-12T09:23:36;99763.22;;;30.18;29.84
7668;BME280;3876;42.204;24.686;2022-07-12T09:26:07;99749.25;;;29.92;32.31
7668;BME280;3876;42.204;24.686;2022-07-12T09:28:34;99756.72;;;29.97;29.16
7668;BME280;3876;42.204;24.686;2022-07-12T09:31:01;99747.66;;;30.07;30.84
7668;BME280;3876;42.204;24.686;2022-07-12T09:33:28;99743.06;;;30.17;31.01
7668;BME280;3876;42.204;24.686;2022-07-12T09:36:13;99740.44;;;30.17;30.74
7668;BME280;3876;42.204;24.686;2022-07-12T09:38:51;99745.84;;;30.16;29.25
7668;BME280;3876;42.204;24.686;2022-07-12T09:41:19;99730.78;;;30.08;29.16
7668;BME280;3876;42.204;24.686;2022-07-12T09:43:48;99729.78;;;29.93;30.32
7668;BME280;3876;42.204;24.686;2022-07-12T09:46:15;99728.25;;;29.83;30.73
7668;BME280;3876;42.204;24.686;2022-07-12T09:48:42;99713.91;;;29.93;31.43
7668;BME280;3876;42.204;24.686;2022-07-12T09:51:14;99732.94;;;29.89;31.60
7668;BME280;3876;42.204;24.686;2022-07-12T09:53:43;99728.28;;;29.49;29.53
7668;BME280;3876;42.204;24.686;2022-07-12T09:56:12;99729.59;;;29.45;30.99
7668;BME280;3876;42.204;24.686;2022-07-12T09:58:40;99724.81;;;29.48;31.45
7668;BME280;3876;42.204;24.686;2022-07-12T10:01:10;99725.13;;;29.45;31.72
7668;BME280;3876;42.204;24.686;2022-07-12T10:03:40;99723.38;;;29.62;32.84
7668;BME280;3876;42.204;24.686;2022-07-12T10:06:07;99728.94;;;29.51;33.97
7668;BME280;3876;42.204;24.686;2022-07-12T10:08:36;99725.97;;;29.46;29.99
7668;BME280;3876;42.204;24.686;2022-07-12T10:11:04;99713.16;;;29.67;30.20
7668;BME280;3876;42.204;24.686;2022-07-12T10:13:31;99714.03;;;29.76;32.33
7668;BME280;3876;42.204;24.686;2022-07-12T10:16:01;99719.53;;;29.90;30.00
7668;BME280;3876;42.204;24.686;2022-07-12T10:18:29;99721.19;;;29.91;30.64
7668;BME280;3876;42.204;24.686;2022-07-12T10:20:56;99710.94;;;29.88;32.59
7668;BME280;3876;42.204;24.686;2022-07-12T10:23:31;99717.22;;;29.95;33.99
7668;BME280;3876;42.204;24.686;2022-07-12T10:26:23;99714.16;;;29.74;29.05
7668;BME280;3876;42.204;24.686;2022-07-12T10:28:59;99708.22;;;29.80;31.29
7668;BME280;3876;42.204;24.686;2022-07-12T10:31:29;99704.00;;;29.87;33.84
7668;BME280;3876;42.204;24.686;2022-07-12T10:34:10;99692.59;;;29.87;33.56
7668;BME280;3876;42.204;24.686;2022-07-12T10:37:08;99695.69;;;29.82;33.79
7668;BME280;3876;42.204;24.686;2022-07-12T10:39:39;99700.38;;;29.88;30.94
7668;BME280;3876;42.204;24.686;2022-07-12T10:42:16;99695.22;;;29.87;31.98
7668;BME280;3876;42.204;24.686;2022-07-12T10:44:46;99704.13;;;29.86;31.00
7668;BME280;3876;42.204;24.686;2022-07-12T10:47:14;99695.75;;;29.90;30.59
7668;BME280;3876;42.204;24.686;2022-07-12T10:49:46;99696.41;;;30.00;32.46
7668;BME280;3876;42.204;24.686;2022-07-12T10:52:17;99699.75;;;30.10;31.58
7668;BME280;3876;42.204;24.686;2022-07-12T10:55:16;99682.56;;;30.23;30.95
7668;BME280;3876;42.204;24.686;2022-07-12T10:57:46;99687.84;;;30.23;30.04
7668;BME280;3876;42.204;24.686;2022-07-12T11:00:16;99678.91;;;30.07;32.27
7668;BME280;3876;42.204;24.686;2022-07-12T11:02:43;99679.22;;;29.96;30.44
7668;BME280;3876;42.204;24.686;2022-07-12T11:05:10;99688.47;;;29.84;31.70
7668;BME280;3876;42.204;24.686;2022-07-12T11:07:37;99672.28;;;29.87;31.15
7668;BME280;3876;42.204;24.686;2022-07-12T11:10:05;99677.91;;;30.00;32.61
7668;BME280;3876;42.204;24.686;2022-07-12T11:12:33;99676.75;;;30.03;31.50
7668;BME280;3876;42.204;24.686;2022-07-12T11:15:03;99667.66;;;29.97;31.63
7668;BME280;3876;42.204;24.686;2022-07-12T11:17:32;99674.19;;;29.77;31.85
7668;BME280;3876;42.204;24.686;2022-07-12T11:20:06;99669.25;;;29.74;34.46
7668;BME280;3876;42.204;24.686;2022-07-12T11:22:35;99664.28;;;29.79;33.59
7668;BME280;3876;42.204;24.686;2022-07-12T11:25:03;99671.22;;;29.80;31.64
7668;BME280;3876;42.204;24.686;2022-07-12T11:27:30;99669.16;;;29.92;30.38
7668;BME280;3876;42.204;24.686;2022-07-12T11:29:57;99659.56;;;29.91;30.94
7668;BME280;3876;42.204;24.686;2022-07-12T11:32:35;99669.63;;;29.95;32.51
7668;BME280;3876;42.204;24.686;2022-07-12T11:35:03;99663.38;;;30.04;33.59
7668;BME280;3876;42.204;24.686;2022-07-12T11:37:30;99657.41;;;29.94;34.29
7668;BME280;3876;42.204;24.686;2022-07-12T11:39:56;99652.78;;;29.96;31.45
7668;BME280;3876;42.204;24.686;2022-07-12T11:42:24;99645.50;;;29.90;31.77
7668;BME280;3876;42.204;24.686;2022-07-12T11:44:51;99654.94;;;29.85;32.15
7668;BME280;3876;42.204;24.686;2022-07-12T11:47:19;99648.13;;;29.82;31.25
7668;BME280;3876;42.204;24.686;2022-07-12T11:49:50;99657.75;;;29.91;33.88
7668;BME280;3876;42.204;24.686;2022-07-12T11:52:21;99649.81;;;29.99;31.81
7668;BME280;3876;42.204;24.686;2022-07-12T11:54:49;99651.66;;;30.07;30.64
7668;BME280;3876;42.204;24.686;2022-07-12T11:57:19;99649.81;;;29.99;32.41
7668;BME280;3876;42.204;24.686;2022-07-12T11:59:47;99647.50;;;29.96;30.51
7668;BME280;3876;42.204;24.686;2022-07-12T12:02:15;99649.78;;;29.83;29.72
7668;BME280;3876;42.204;24.686;2022-07-12T12:04:50;99650.78;;;29.90;29.15
7668;BME280;3876;42.204;24.686;2022-07-12T12:07:20;99646.50;;;29.97;30.73
7668;BME280;3876;42.204;24.686;2022-07-12T12:10:04;99646.16;;;29.84;29.60
7668;BME280;3876;42.204;24.686;2022-07-12T12:12:40;99642.66;;;29.76;31.06
7668;BME280;3876;42.204;24.686;2022-07-12T12:15:09;99629.78;;;29.81;33.02
7668;BME280;3876;42.204;24.686;2022-07-12T12:17:37;99623.97;;;29.77;32.45
7668;BME280;3876;42.204;24.686;2022-07-12T12:20:11;99635.09;;;29.97;31.77
7668;BME280;3876;42.204;24.686;2022-07-12T12:22:39;99629.50;;;29.92;31.92
7668;BME280;3876;42.204;24.686;2022-07-12T12:25:06;99642.38;;;29.87;28.44
7668;BME280;3876;42.204;24.686;2022-07-12T12:27:43;99642.22;;;29.88;30.25
7668;BME280;3876;42.204;24.686;2022-07-12T12:30:10;99632.63;;;29.95;33.01
7668;BME280;3876;42.204;24.686;2022-07-12T12:32:45;99643.53;;;30.00;31.16
7668;BME280;3876;42.204;24.686;2022-07-12T12:35:15;99628.69;;;30.07;30.54
7668;BME280;3876;42.204;24.686;2022-07-12T12:37:52;99624.22;;;30.16;31.59
7668;BME280;3876;42.204;24.686;2022-07-12T12:40:20;99618.25;;;30.22;33.08
7668;BME280;3876;42.204;24.686;2022-07-12T12:42:47;99627.19;;;30.21;31.62
7668;BME280;3876;42.204;24.686;2022-07-12T12:45:19;99627.50;;;30.18;31.16
7668;BME280;3876;42.204;24.686;2022-07-12T12:47:57;99624.38;;;29.90;29.60
7668;BME280;3876;42.204;24.686;2022-07-12T12:50:43;99616.09;;;29.85;29.81
7668;BME280;3876;42.204;24.686;2022-07-12T12:53:13;99624.69;;;29.87;28.53
7668;BME280;3876;42.204;24.686;2022-07-12T12:55:40;99627.28;;;29.79;29.17
7668;BME280;3876;42.204;24.686;2022-07-12T12:58:07;99615.41;;;29.75;30.15
7668;BME280;3876;42.204;24.686;2022-07-12T13:00:36;99632.56;;;29.71;28.90
7668;BME280;3876;42.204;24.686;2022-07-12T13:03:04;99626.13;;;29.74;30.60
7668;BME280;3876;42.204;24.686;2022-07-12T13:05:32;99613.78;;;29.90;31.23
7668;BME280;3876;42.204;24.686;2022-07-12T13:08:01;99617.75;;;29.86;32.52
7668;BME280;3876;42.204;24.686;2022-07-12T13:10:28;99628.94;;;29.80;30.18
7668;BME280;3876;42.204;24.686;2022-07-12T13:12:56;99608.44;;;29.74;29.07
7668;BME280;3876;42.204;24.686;2022-07-12T13:15:23;99616.59;;;29.89;30.10
7668;BME280;3876;42.204;24.686;2022-07-12T13:17:49;99631.97;;;29.85;29.65